Stena Germanica — SKPZ — position and weather

sailwx.info

Track history (hours):
 
Tides and Currents Weather Stations Pressure Air Temp Water Temp Dewpoint Dewpoint Depression Visibility Wind Speed Wind Dir Waves Ship Positions

Stena Germanica

Last reported at 2015-Jul-02 07:31 UTC. Time now 2015-Jul-02 08:03 UTC.
Position N 56°10' E 015°38'.

Length 176 m; draft 6.7 m.

Type: Ship (hazmat cat A). MMSI: 265292000.

Date/timePositionNaut miles runAvg speedWind from/ knotsBaromVisibWave heightAir tempDewpointWater temp
2015-Jul-02 07:31N 56°10' E 015°38'0 0.5
2015-Jul-02 06:34N 56°10' E 015°37'1212.1
2015-Jul-02 05:33N 55°59' E 015°47'1515.3
2015-Jul-02 04:33N 55°50' E 016°10'1515.3
2015-Jul-02 03:33N 55°42' E 016°33'1515.3
2015-Jul-02 02:34N 55°34' E 016°56'1515.3
2015-Jul-02 01:33N 55°26' E 017°18'1615.5
2015-Jul-02 00:33N 55°17' E 017°41'1615.6
2015-Jul-01 23:33N 55°08' E 018°04'1615.6
2015-Jul-01 22:33N 54°60' E 018°26'1615.5
2015-Jul-01 21:33N 54°49' E 018°46'1413.7
2015-Jul-01 20:33N 54°36' E 018°54'1212.5
2015-Jul-01 19:33N 54°32' E 018°34'2 2.0
2015-Jul-01 18:33N 54°33' E 018°30'0 0.0
2015-Jul-01 17:33N 54°33' E 018°30'1010.2
2015-Jul-01 16:34N 54°33' E 018°48'1414.4
2015-Jul-01 15:33N 54°47' E 018°49'1818.1
2015-Jul-01 14:34N 54°60' E 018°27'1818.2
2015-Jul-01 13:33N 55°10' E 018°00'1818.0
2015-Jul-01 12:33N 55°20' E 017°34'1818.1
2015-Jul-01 11:33N 55°30' E 017°07'1817.8
2015-Jul-01 10:33N 55°40' E 016°41'4615.5
2015-Jul-01 07:34N 56°10' E 015°37'0 0.3
2015-Jul-01 06:32N 56°10' E 015°38'1 0.7
2015-Jul-01 05:33N 56°09' E 015°37'2013.9
2015-Jul-01 04:08N 55°55' E 016°01'1517.3
2015-Jul-01 03:15N 55°46' E 016°23'1217.9
2015-Jul-01 02:33N 55°39' E 016°41'1818.2
2015-Jul-01 01:33N 55°30' E 017°09'1817.7
2015-Jul-01 00:33N 55°20' E 017°35'1817.7
2015-Jun-30 23:33N 55°11' E 018°01'1717.2
2015-Jun-30 22:33N 55°00' E 018°25'1717.1
2015-Jun-30 21:33N 54°49' E 018°47'1414.2
2015-Jun-30 20:33N 54°35' E 018°53'1312.7
2015-Jun-30 19:34N 54°32' E 018°32'1 0.8
2015-Jun-30 18:31N 54°33' E 018°30'0 0.0
2015-Jun-30 17:32N 54°33' E 018°30'8 8.1
2015-Jun-30 16:33N 54°32' E 018°44'1413.7
2015-Jun-30 15:33N 54°45' E 018°50'1818.2
2015-Jun-30 14:33N 54°59' E 018°30'1918.0
2015-Jun-30 13:30N 55°09' E 018°01'10116.6
2015-Jun-30 07:24N 56°08' E 015°36'2 2.5
2015-Jun-30 06:34N 56°10' E 015°38'0 0.0
2015-Jun-30 05:28N 56°10' E 015°38'16 8.3
2015-Jun-30 03:30N 55°57' E 015°54'2914.9
2015-Jun-30 01:33N 55°41' E 016°38'3214.7
2015-Jun-29 23:24N 55°23' E 017°25'2815.0
2015-Jun-29 21:31N 55°08' E 018°06'1415.0
2015-Jun-29 20:33N 54°60' E 018°27'1515.2
2015-Jun-29 19:34N 54°49' E 018°45'1413.8
2015-Jun-29 18:34N 54°37' E 018°55'1312.5
2015-Jun-29 17:33N 54°32' E 018°35'3 2.5
2015-Jun-29 16:31N 54°33' E 018°30'0 0.0
2015-Jun-29 15:31N 54°33' E 018°30'0 0.0
2015-Jun-29 14:31N 54°33' E 018°30'0 0.0
2015-Jun-29 13:31N 54°33' E 018°30'0 0.0
2015-Jun-29 12:28N 54°33' E 018°30'0 0.0
2015-Jun-29 11:31N 54°33' E 018°30'0 0.0
2015-Jun-29 10:31N 54°33' E 018°30'0 0.0
2015-Jun-29 09:31N 54°33' E 018°30'0 0.0
2015-Jun-29 08:31N 54°33' E 018°30'0 0.0
2015-Jun-29 07:31N 54°33' E 018°30'3 3.4
2015-Jun-29 06:33N 54°32' E 018°36'1111.4
2015-Jun-29 05:34N 54°37' E 018°54'1313.4
2015-Jun-29 04:33N 54°49' E 018°46'1514.7
2015-Jun-29 03:33N 54°60' E 018°28'1515.0
2015-Jun-29 02:33N 55°08' E 018°06'1715.0
2015-Jun-29 01:25N 55°17' E 017°41'8714.8
2015-Jun-28 19:33N 56°08' E 015°36'2 1.9
2015-Jun-28 18:33N 56°10' E 015°38'4 3.6
2015-Jun-28 17:33N 56°07' E 015°35'7915.7
2015-Jun-28 12:33N 55°22' E 017°29'1716.7
2015-Jun-28 11:33N 55°12' E 017°53'1817.8
2015-Jun-28 10:33N 55°02' E 018°19'1817.7
2015-Jun-28 09:33N 54°51' E 018°43'1615.7
2015-Jun-28 08:33N 54°37' E 018°55'1313.3
2015-Jun-28 07:34N 54°32' E 018°34'2 2.3
2015-Jun-28 06:33N 54°33' E 018°30'0 0.0
2015-Jun-28 05:33N 54°33' E 018°30'9 8.7
2015-Jun-28 04:34N 54°32' E 018°45'1413.7
2015-Jun-28 03:34N 54°46' E 018°50'1717.5
2015-Jun-28 02:34N 54°59' E 018°30'1817.6
2015-Jun-28 01:33N 55°08' E 018°04'10316.7
2015-Jun-27 19:23N 56°08' E 015°36'2 2.3
2015-Jun-27 18:32N 56°10' E 015°38'0 0.0
2015-Jun-27 17:32N 56°10' E 015°38'9415.3
2015-Jun-27 11:25N 55°14' E 017°51'1517.0
2015-Jun-27 10:33N 55°06' E 018°13'1716.8
2015-Jun-27 09:33N 54°56' E 018°36'1716.7
2015-Jun-27 08:33N 54°43' E 018°55'1413.7
2015-Jun-27 07:34N 54°32' E 018°43'8 7.4
2015-Jun-27 06:31N 54°33' E 018°30'0 0.0
2015-Jun-27 05:32N 54°33' E 018°30'8 8.0
2015-Jun-27 04:33N 54°32' E 018°44'1212.3
2015-Jun-27 03:33N 54°43' E 018°53'1515.0
2015-Jun-27 02:33N 54°55' E 018°37'1514.8
2015-Jun-27 01:33N 55°04' E 018°16'1515.3
2015-Jun-27 00:33N 55°12' E 017°54'1515.3
2015-Jun-26 23:33N 55°21' E 017°31'1515.3
2015-Jun-26 22:33N 55°29' E 017°09'1515.0
2015-Jun-26 21:33N 55°37' E 016°47'1615.5
2015-Jun-26 20:33N 55°46' E 016°24'1515.4
2015-Jun-26 19:33N 55°54' E 016°01'1815.2
2015-Jun-26 18:23N 56°04' E 015°34'6 6.7
2015-Jun-26 17:28N 56°10' E 015°38'0 0.0
2015-Jun-26 15:28N 56°10' E 015°38'0 0.0
2015-Jun-26 14:31N 56°10' E 015°38'0 0.0
2015-Jun-26 13:31N 56°10' E 015°38'0 0.0
2015-Jun-26 12:31N 56°10' E 015°38'0 0.0
2015-Jun-26 11:33N 56°10' E 015°38'0 0.0
2015-Jun-26 10:33N 56°10' E 015°38'0 0.0
2015-Jun-26 09:33N 56°10' E 015°38'0 0.0
2015-Jun-26 08:33N 56°10' E 015°38'0 0.0
2015-Jun-26 07:06N 56°10' E 015°38'0 0.2
2015-Jun-26 06:33N 56°10' E 015°38'10915.6
2015-Jun-25 23:33N 55°05' E 018°13'1716.7
2015-Jun-25 22:34N 54°55' E 018°37'1616.2
2015-Jun-25 21:34N 54°42' E 018°55'1313.1
2015-Jun-25 20:34N 54°32' E 018°41'6 6.0
2015-Jun-25 19:29N 54°33' E 018°30'0 0.0
2015-Jun-25 18:33N 54°33' E 018°30'9 9.1
2015-Jun-25 17:34N 54°32' E 018°46'1414.4
2015-Jun-25 16:34N 54°47' E 018°48'1918.8
2015-Jun-25 15:34N 55°00' E 018°26'11816.8
2015-Jun-25 08:33N 56°10' E 015°37'0 0.1
2015-Jun-25 06:32N 56°10' E 015°38'10614.5
2015-Jun-24 23:12N 55°06' E 018°09'1015.5
2015-Jun-24 22:33N 55°01' E 018°23'1515.1
2015-Jun-24 21:33N 54°51' E 018°43'1514.5
2015-Jun-24 20:33N 54°39' E 018°56'1312.7
2015-Jun-24 19:34N 54°32' E 018°38'4 4.3
2015-Jun-24 18:32N 54°33' E 018°30'0 0.0
2015-Jun-24 17:33N 54°33' E 018°30'6 6.1
2015-Jun-24 16:34N 54°32' E 018°41'1413.7
2015-Jun-24 15:34N 54°44' E 018°53'1818.5
2015-Jun-24 14:34N 54°57' E 018°32'2018.5
2015-Jun-24 13:30N 55°09' E 018°03'10217.2
2015-Jun-24 07:33N 56°09' E 015°36'2 1.6
2015-Jun-24 06:31N 56°10' E 015°38'0 0.1
2015-Jun-24 05:33N 56°10' E 015°38'1813.1
2015-Jun-24 04:12N 55°56' E 015°57'9017.7
2015-Jun-23 23:09N 55°06' E 018°09'1017.5
2015-Jun-23 22:34N 55°01' E 018°24'1717.0
2015-Jun-23 21:34N 54°49' E 018°45'1515.0
2015-Jun-23 20:34N 54°35' E 018°53'1212.3
2015-Jun-23 19:33N 54°32' E 018°32'1 2.8
2015-Jun-23 19:04N 54°33' E 018°30'18 0.8
2015-Jun-22 19:34N 54°48' E 018°46'1313.5
2015-Jun-22 18:34N 54°36' E 018°54'1212.1
2015-Jun-22 17:33N 54°32' E 018°34'2 2.2
2015-Jun-22 16:31N 54°33' E 018°30'0 0.0
2015-Jun-22 15:31N 54°33' E 018°30'0 0.0
2015-Jun-22 14:31N 54°33' E 018°30'0 0.0
2015-Jun-22 13:31N 54°33' E 018°30'0 0.0
2015-Jun-22 12:28N 54°33' E 018°30'0 0.0
2015-Jun-22 11:31N 54°33' E 018°30'0 0.0
2015-Jun-22 10:31N 54°33' E 018°30'0 0.0
2015-Jun-22 09:31N 54°33' E 018°30'0 0.0
2015-Jun-22 08:31N 54°33' E 018°30'0 0.0
2015-Jun-22 07:31N 54°33' E 018°30'  
Track history (hours):
 
Tides and Currents Weather Stations Pressure Air Temp Water Temp Dewpoint Dewpoint Depression Visibility Wind Speed Wind Dir Waves Ship Positions

Stena Germanica

Last reported at 2015-Jul-02 07:31 UTC. Time now 2015-Jul-02 08:03 UTC.
Position N 56°10' E 015°38'.

Length 176 m; draft 6.7 m.

Type: Ship (hazmat cat A). MMSI: 265292000.

Date/timePositionNaut miles runAvg speedWind from/ knotsBaromVisibWave heightAir tempDewpointWater temp
2015-Jul-02 07:31N 56°10' E 015°38'0 0.5
2015-Jul-02 06:34N 56°10' E 015°37'1212.1
2015-Jul-02 05:33N 55°59' E 015°47'1515.3
2015-Jul-02 04:33N 55°50' E 016°10'1515.3
2015-Jul-02 03:33N 55°42' E 016°33'1515.3
2015-Jul-02 02:34N 55°34' E 016°56'1515.3
2015-Jul-02 01:33N 55°26' E 017°18'1615.5
2015-Jul-02 00:33N 55°17' E 017°41'1615.6
2015-Jul-01 23:33N 55°08' E 018°04'1615.6
2015-Jul-01 22:33N 54°60' E 018°26'1615.5
2015-Jul-01 21:33N 54°49' E 018°46'1413.7
2015-Jul-01 20:33N 54°36' E 018°54'1212.5
2015-Jul-01 19:33N 54°32' E 018°34'2 2.0
2015-Jul-01 18:33N 54°33' E 018°30'0 0.0
2015-Jul-01 17:33N 54°33' E 018°30'1010.2
2015-Jul-01 16:34N 54°33' E 018°48'1414.4
2015-Jul-01 15:33N 54°47' E 018°49'1818.1
2015-Jul-01 14:34N 54°60' E 018°27'1818.2
2015-Jul-01 13:33N 55°10' E 018°00'1818.0
2015-Jul-01 12:33N 55°20' E 017°34'1818.1
2015-Jul-01 11:33N 55°30' E 017°07'1817.8
2015-Jul-01 10:33N 55°40' E 016°41'4615.5
2015-Jul-01 07:34N 56°10' E 015°37'0 0.3
2015-Jul-01 06:32N 56°10' E 015°38'1 0.7
2015-Jul-01 05:33N 56°09' E 015°37'2013.9
2015-Jul-01 04:08N 55°55' E 016°01'1517.3
2015-Jul-01 03:15N 55°46' E 016°23'1217.9
2015-Jul-01 02:33N 55°39' E 016°41'1818.2
2015-Jul-01 01:33N 55°30' E 017°09'1817.7
2015-Jul-01 00:33N 55°20' E 017°35'1817.7
2015-Jun-30 23:33N 55°11' E 018°01'1717.2
2015-Jun-30 22:33N 55°00' E 018°25'1717.1
2015-Jun-30 21:33N 54°49' E 018°47'1414.2
2015-Jun-30 20:33N 54°35' E 018°53'1312.7
2015-Jun-30 19:34N 54°32' E 018°32'1 0.8
2015-Jun-30 18:31N 54°33' E 018°30'0 0.0
2015-Jun-30 17:32N 54°33' E 018°30'8 8.1
2015-Jun-30 16:33N 54°32' E 018°44'1413.7
2015-Jun-30 15:33N 54°45' E 018°50'1818.2
2015-Jun-30 14:33N 54°59' E 018°30'1918.0
2015-Jun-30 13:30N 55°09' E 018°01'10116.6
2015-Jun-30 07:24N 56°08' E 015°36'2 2.5
2015-Jun-30 06:34N 56°10' E 015°38'0 0.0
2015-Jun-30 05:28N 56°10' E 015°38'16 8.3
2015-Jun-30 03:30N 55°57' E 015°54'2914.9
2015-Jun-30 01:33N 55°41' E 016°38'3214.7
2015-Jun-29 23:24N 55°23' E 017°25'2815.0
2015-Jun-29 21:31N 55°08' E 018°06'1415.0
2015-Jun-29 20:33N 54°60' E 018°27'1515.2
2015-Jun-29 19:34N 54°49' E 018°45'1413.8
2015-Jun-29 18:34N 54°37' E 018°55'1312.5
2015-Jun-29 17:33N 54°32' E 018°35'3 2.5
2015-Jun-29 16:31N 54°33' E 018°30'0 0.0
2015-Jun-29 15:31N 54°33' E 018°30'0 0.0
2015-Jun-29 14:31N 54°33' E 018°30'0 0.0
2015-Jun-29 13:31N 54°33' E 018°30'0 0.0
2015-Jun-29 12:28N 54°33' E 018°30'0 0.0
2015-Jun-29 11:31N 54°33' E 018°30'0 0.0
2015-Jun-29 10:31N 54°33' E 018°30'0 0.0
2015-Jun-29 09:31N 54°33' E 018°30'0 0.0
2015-Jun-29 08:31N 54°33' E 018°30'0 0.0
2015-Jun-29 07:31N 54°33' E 018°30'3 3.4
2015-Jun-29 06:33N 54°32' E 018°36'1111.4
2015-Jun-29 05:34N 54°37' E 018°54'1313.4
2015-Jun-29 04:33N 54°49' E 018°46'1514.7
2015-Jun-29 03:33N 54°60' E 018°28'1515.0
2015-Jun-29 02:33N 55°08' E 018°06'1715.0
2015-Jun-29 01:25N 55°17' E 017°41'8714.8
2015-Jun-28 19:33N 56°08' E 015°36'2 1.9
2015-Jun-28 18:33N 56°10' E 015°38'4 3.6
2015-Jun-28 17:33N 56°07' E 015°35'7915.7
2015-Jun-28 12:33N 55°22' E 017°29'1716.7
2015-Jun-28 11:33N 55°12' E 017°53'1817.8
2015-Jun-28 10:33N 55°02' E 018°19'1817.7
2015-Jun-28 09:33N 54°51' E 018°43'1615.7
2015-Jun-28 08:33N 54°37' E 018°55'1313.3
2015-Jun-28 07:34N 54°32' E 018°34'2 2.3
2015-Jun-28 06:33N 54°33' E 018°30'0 0.0
2015-Jun-28 05:33N 54°33' E 018°30'9 8.7
2015-Jun-28 04:34N 54°32' E 018°45'1413.7
2015-Jun-28 03:34N 54°46' E 018°50'1717.5
2015-Jun-28 02:34N 54°59' E 018°30'1817.6
2015-Jun-28 01:33N 55°08' E 018°04'10316.7
2015-Jun-27 19:23N 56°08' E 015°36'2 2.3
2015-Jun-27 18:32N 56°10' E 015°38'0 0.0
2015-Jun-27 17:32N 56°10' E 015°38'9415.3
2015-Jun-27 11:25N 55°14' E 017°51'1517.0
2015-Jun-27 10:33N 55°06' E 018°13'1716.8
2015-Jun-27 09:33N 54°56' E 018°36'1716.7
2015-Jun-27 08:33N 54°43' E 018°55'1413.7
2015-Jun-27 07:34N 54°32' E 018°43'8 7.4
2015-Jun-27 06:31N 54°33' E 018°30'0 0.0
2015-Jun-27 05:32N 54°33' E 018°30'8 8.0
2015-Jun-27 04:33N 54°32' E 018°44'1212.3
2015-Jun-27 03:33N 54°43' E 018°53'1515.0
2015-Jun-27 02:33N 54°55' E 018°37'1514.8
2015-Jun-27 01:33N 55°04' E 018°16'1515.3
2015-Jun-27 00:33N 55°12' E 017°54'1515.3
2015-Jun-26 23:33N 55°21' E 017°31'1515.3
2015-Jun-26 22:33N 55°29' E 017°09'1515.0
2015-Jun-26 21:33N 55°37' E 016°47'1615.5
2015-Jun-26 20:33N 55°46' E 016°24'1515.4
2015-Jun-26 19:33N 55°54' E 016°01'1815.2
2015-Jun-26 18:23N 56°04' E 015°34'6 6.7
2015-Jun-26 17:28N 56°10' E 015°38'0 0.0
2015-Jun-26 15:28N 56°10' E 015°38'0 0.0
2015-Jun-26 14:31N 56°10' E 015°38'0 0.0
2015-Jun-26 13:31N 56°10' E 015°38'0 0.0
2015-Jun-26 12:31N 56°10' E 015°38'0 0.0
2015-Jun-26 11:33N 56°10' E 015°38'0 0.0
2015-Jun-26 10:33N 56°10' E 015°38'0 0.0
2015-Jun-26 09:33N 56°10' E 015°38'0 0.0
2015-Jun-26 08:33N 56°10' E 015°38'0 0.0
2015-Jun-26 07:06N 56°10' E 015°38'0 0.2
2015-Jun-26 06:33N 56°10' E 015°38'10915.6
2015-Jun-25 23:33N 55°05' E 018°13'1716.7
2015-Jun-25 22:34N 54°55' E 018°37'1616.2
2015-Jun-25 21:34N 54°42' E 018°55'1313.1
2015-Jun-25 20:34N 54°32' E 018°41'6 6.0
2015-Jun-25 19:29N 54°33' E 018°30'0 0.0
2015-Jun-25 18:33N 54°33' E 018°30'9 9.1
2015-Jun-25 17:34N 54°32' E 018°46'1414.4
2015-Jun-25 16:34N 54°47' E 018°48'1918.8
2015-Jun-25 15:34N 55°00' E 018°26'11816.8
2015-Jun-25 08:33N 56°10' E 015°37'0 0.1
2015-Jun-25 06:32N 56°10' E 015°38'10614.5
2015-Jun-24 23:12N 55°06' E 018°09'1015.5
2015-Jun-24 22:33N 55°01' E 018°23'1515.1
2015-Jun-24 21:33N 54°51' E 018°43'1514.5
2015-Jun-24 20:33N 54°39' E 018°56'1312.7
2015-Jun-24 19:34N 54°32' E 018°38'4 4.3
2015-Jun-24 18:32N 54°33' E 018°30'0 0.0
2015-Jun-24 17:33N 54°33' E 018°30'6 6.1
2015-Jun-24 16:34N 54°32' E 018°41'1413.7
2015-Jun-24 15:34N 54°44' E 018°53'1818.5
2015-Jun-24 14:34N 54°57' E 018°32'2018.5
2015-Jun-24 13:30N 55°09' E 018°03'10217.2
2015-Jun-24 07:33N 56°09' E 015°36'2 1.6
2015-Jun-24 06:31N 56°10' E 015°38'0 0.1
2015-Jun-24 05:33N 56°10' E 015°38'1813.1
2015-Jun-24 04:12N 55°56' E 015°57'9017.7
2015-Jun-23 23:09N 55°06' E 018°09'1017.5
2015-Jun-23 22:34N 55°01' E 018°24'1717.0
2015-Jun-23 21:34N 54°49' E 018°45'1515.0
2015-Jun-23 20:34N 54°35' E 018°53'1212.3
2015-Jun-23 19:33N 54°32' E 018°32'1 2.8
2015-Jun-23 19:04N 54°33' E 018°30'18 0.8
2015-Jun-22 19:34N 54°48' E 018°46'1313.5
2015-Jun-22 18:34N 54°36' E 018°54'1212.1
2015-Jun-22 17:33N 54°32' E 018°34'2 2.2
2015-Jun-22 16:31N 54°33' E 018°30'0 0.0
2015-Jun-22 15:31N 54°33' E 018°30'0 0.0
2015-Jun-22 14:31N 54°33' E 018°30'0 0.0
2015-Jun-22 13:31N 54°33' E 018°30'0 0.0
2015-Jun-22 12:28N 54°33' E 018°30'0 0.0
2015-Jun-22 11:31N 54°33' E 018°30'0 0.0
2015-Jun-22 10:31N 54°33' E 018°30'0 0.0
2015-Jun-22 09:31N 54°33' E 018°30'0 0.0
2015-Jun-22 08:31N 54°33' E 018°30'0 0.0
2015-Jun-22 07:31N 54°33' E 018°30'  

Dump ship's entire track history